createdAt,value
2018-12-05T00:01:22.555Z,97870.55
2018-12-05T00:03:51.662Z,97874.84
2018-12-05T00:06:20.777Z,97870.97
2018-12-05T00:08:51.572Z,97873.55
2018-12-05T00:11:20.921Z,97875.67
2018-12-05T00:13:49.872Z,97876.06
2018-12-05T00:16:19.104Z,97874.31
2018-12-05T00:18:48.096Z,97879.11
2018-12-05T00:21:17.179Z,97879.03
2018-12-05T00:23:46.297Z,97880.77
2018-12-05T00:26:15.355Z,97885.50
2018-12-05T00:28:44.413Z,97887.63
2018-12-05T00:31:13.275Z,97884.18
2018-12-05T00:33:42.403Z,97890.25
2018-12-05T00:36:11.181Z,97885.52
2018-12-05T00:38:40.255Z,97887.25
2018-12-05T00:41:09.435Z,97890.69
2018-12-05T00:43:38.645Z,97893.70
2018-12-05T00:46:07.772Z,97891.95
2018-12-05T00:48:36.861Z,97895.38
2018-12-05T00:51:06.065Z,97894.91
2018-12-05T00:53:35.458Z,97892.32
2018-12-05T00:56:04.625Z,97894.89
2018-12-05T00:58:33.573Z,97893.14
2018-12-05T01:01:02.664Z,97897.42
2018-12-05T01:03:31.779Z,97898.68
2018-12-05T01:06:01.014Z,97893.47
2018-12-05T01:08:30.184Z,97893.90
2018-12-05T01:10:59.306Z,97892.14
2018-12-05T01:13:28.567Z,97889.52
2018-12-05T01:15:57.692Z,97889.45
2018-12-05T01:18:26.603Z,97883.38
2018-12-05T01:20:55.886Z,97886.81
2018-12-05T01:23:25.090Z,97880.28
2018-12-05T01:25:53.872Z,97878.12
2018-12-05T01:28:22.989Z,97873.36
2018-12-05T01:30:51.772Z,97869.47
2018-12-05T01:33:21.041Z,97874.69
2018-12-05T01:35:49.973Z,97873.38
2018-12-05T01:38:18.951Z,97873.85
2018-12-05T01:40:48.060Z,97875.56
2018-12-05T01:43:16.841Z,97884.23
2018-12-05T01:45:45.810Z,97883.77
2018-12-05T01:48:14.693Z,97879.52
2018-12-05T01:50:43.920Z,97880.33
2018-12-05T01:53:13.160Z,97887.73
2018-12-05T01:55:42.212Z,97882.92
2018-12-05T01:58:11.276Z,97888.98
2018-12-05T02:00:40.015Z,97892.47
2018-12-05T02:03:09.088Z,97891.65
2018-12-05T02:05:38.250Z,97887.78
2018-12-05T02:08:07.321Z,97891.27
2018-12-05T02:10:36.188Z,97887.82
2018-12-05T02:13:05.591Z,97886.12
2018-12-05T02:15:34.575Z,97881.30
2018-12-05T02:18:03.332Z,97880.92
2018-12-05T02:20:32.504Z,97889.19
2018-12-05T02:23:01.605Z,97892.19
2018-12-05T02:25:30.781Z,97886.17
2018-12-05T02:27:59.924Z,97894.43
2018-12-05T02:30:29.122Z,97896.14
2018-12-05T02:32:58.282Z,97899.61
2018-12-05T02:35:27.141Z,97902.63
2018-12-05T02:37:56.140Z,97905.20
2018-12-05T02:40:25.200Z,97907.41
2018-12-05T02:42:54.713Z,97907.01
2018-12-05T02:45:23.460Z,97907.03
2018-12-05T02:47:52.997Z,97904.86
2018-12-05T02:50:22.166Z,97911.83
2018-12-05T02:52:51.337Z,97909.66
2018-12-05T02:55:20.068Z,97913.14
2018-12-05T02:57:49.213Z,97921.81
2018-12-05T03:00:18.411Z,97930.48
2018-12-05T03:02:47.512Z,97924.86
2018-12-05T03:05:16.862Z,97926.20
2018-12-05T03:07:46.106Z,97932.22
2018-12-05T03:10:15.214Z,97928.34
2018-12-05T03:12:44.513Z,97933.08
2018-12-05T03:15:13.481Z,97938.28
2018-12-05T03:17:42.391Z,97935.27
2018-12-05T03:20:11.431Z,97943.05
2018-12-05T03:22:40.542Z,97947.81
2018-12-05T03:25:09.431Z,97946.48
2018-12-05T03:27:38.230Z,97950.79
2018-12-05T03:30:07.502Z,97947.34
2018-12-05T03:32:36.417Z,97947.72
2018-12-05T03:35:05.785Z,97954.58
2018-12-05T03:37:34.940Z,97954.09
2018-12-05T03:40:04.444Z,97954.39
2018-12-05T03:42:33.548Z,97954.16
2018-12-05T03:45:02.486Z,97954.78
2018-12-05T03:47:31.472Z,97950.58
2018-12-05T03:50:02.773Z,97949.80
2018-12-05T03:52:32.440Z,97945.64
2018-12-05T03:55:01.481Z,97943.17
2018-12-05T03:57:30.466Z,97949.38
2018-12-05T03:59:59.595Z,97957.95
2018-12-05T04:02:28.548Z,97954.42
2018-12-05T04:04:57.744Z,97960.02
2018-12-05T04:07:26.607Z,97961.22
2018-12-05T04:09:55.709Z,97967.66
2018-12-05T04:12:24.921Z,97964.47
2018-12-05T04:14:54.124Z,97970.31
2018-12-05T04:17:23.263Z,97970.06
2018-12-05T04:19:52.403Z,97967.50
2018-12-05T04:22:21.508Z,97976.44
2018-12-05T04:24:50.595Z,97979.40
2018-12-05T04:27:19.565Z,97981.50
2018-12-05T04:29:48.600Z,97986.95
2018-12-05T04:32:17.634Z,97985.95
2018-12-05T04:34:46.684Z,97988.87
2018-12-05T04:37:15.723Z,97995.70
2018-12-05T04:39:44.786Z,97990.75
2018-12-05T04:42:13.589Z,97995.50
2018-12-05T04:44:42.642Z,97999.89
2018-12-05T04:47:12.378Z,97998.48
2018-12-05T04:49:41.503Z,98000.26
2018-12-05T04:52:10.700Z,98000.16
2018-12-05T04:54:39.778Z,98011.84
2018-12-05T04:57:08.825Z,98006.08
2018-12-05T04:59:37.912Z,98021.24
2018-12-05T05:02:06.841Z,98025.56
2018-12-05T05:04:35.817Z,98027.17
2018-12-05T05:07:04.996Z,98031.05
2018-12-05T05:09:34.001Z,98036.77
2018-12-05T05:12:03.197Z,98034.59
2018-12-05T05:14:32.335Z,98047.22
2018-12-05T05:17:01.449Z,98048.52
2018-12-05T05:19:30.606Z,98051.50
2018-12-05T05:21:59.732Z,98058.84
2018-12-05T05:24:28.785Z,98058.47
2018-12-05T05:26:57.853Z,98058.87
2018-12-05T05:29:26.805Z,98067.54
2018-12-05T05:31:56.056Z,98077.08
2018-12-05T05:34:24.988Z,98075.78
2018-12-05T05:36:53.989Z,98079.23
2018-12-05T05:39:23.158Z,98079.16
2018-12-05T05:41:52.444Z,98077.92
2018-12-05T05:44:21.641Z,98077.82
2018-12-05T05:46:50.692Z,98077.79
2018-12-05T05:49:19.845Z,98081.64
2018-12-05T05:51:48.898Z,98084.19
2018-12-05T05:54:18.135Z,98086.33
2018-12-05T05:56:47.323Z,98085.39
2018-12-05T05:59:16.424Z,98087.93
2018-12-05T06:01:45.217Z,98093.52
2018-12-05T06:04:14.296Z,98092.58
2018-12-05T06:06:43.014Z,98097.30
2018-12-05T06:09:12.085Z,98107.18
2018-12-05T06:11:41.374Z,98108.42
2018-12-05T06:14:10.381Z,98112.77
2018-12-05T06:16:39.667Z,98124.94
2018-12-05T06:19:08.616Z,98117.09
2018-12-05T06:21:37.683Z,98117.92
2018-12-05T06:24:06.538Z,98121.38
2018-12-05T06:26:35.295Z,98126.97
2018-12-05T06:29:04.369Z,98126.43
2018-12-05T06:31:33.499Z,98125.95
2018-12-05T06:34:02.224Z,98124.14
2018-12-05T06:36:31.283Z,98125.02
2018-12-05T06:39:00.395Z,98128.42
2018-12-05T06:41:29.547Z,98131.41
2018-12-05T06:43:58.791Z,98133.95
2018-12-05T06:46:27.880Z,98130.94
2018-12-05T06:48:57.074Z,98134.02
2018-12-05T06:51:26.289Z,98137.91
2018-12-05T06:53:55.476Z,98140.95
2018-12-05T06:56:24.200Z,98145.31
2018-12-05T06:58:53.421Z,98144.84
2018-12-05T07:01:22.457Z,98151.78
2018-12-05T07:03:51.343Z,98154.39
2018-12-05T07:06:20.435Z,98152.65
2018-12-05T07:08:49.628Z,98149.56
2018-12-05T07:11:18.432Z,98161.77
2018-12-05T07:13:47.300Z,98168.23
2018-12-05T07:16:16.404Z,98163.00
2018-12-05T07:18:45.346Z,98160.38
2018-12-05T07:21:14.423Z,98166.45
2018-12-05T07:23:43.483Z,98172.05
2018-12-05T07:26:12.611Z,98171.53
2018-12-05T07:28:41.862Z,98170.12
2018-12-05T07:31:10.838Z,98178.25
2018-12-05T07:33:39.612Z,98180.72
2018-12-05T07:36:08.852Z,98178.42
2018-12-05T07:38:38.057Z,98183.91
2018-12-05T07:41:07.057Z,98180.42
2018-12-05T07:43:36.133Z,98178.27
2018-12-05T07:46:05.062Z,98185.25
2018-12-05T07:48:34.231Z,98190.84
2018-12-05T07:51:03.038Z,98184.30
2018-12-05T07:53:31.884Z,98189.14
2018-12-05T07:56:00.977Z,98187.47
2018-12-05T07:58:30.177Z,98202.41
2018-12-05T08:00:59.327Z,98195.83
2018-12-05T08:03:28.312Z,98201.42
2018-12-05T08:05:57.581Z,98204.52
2018-12-05T08:08:26.673Z,98206.22
2018-12-05T08:10:55.873Z,98206.62
2018-12-05T08:13:24.999Z,98211.02
2018-12-05T08:15:54.175Z,98211.45
2018-12-05T08:18:23.256Z,98217.48
2018-12-05T08:20:52.396Z,98225.81
2018-12-05T08:23:21.592Z,98224.72
2018-12-05T08:25:50.850Z,98225.77
2018-12-05T08:28:19.720Z,98225.34
2018-12-05T08:30:48.525Z,98243.61
2018-12-05T08:33:17.686Z,98240.92
2018-12-05T08:35:46.629Z,98242.20
2018-12-05T08:38:15.602Z,98238.78
2018-12-05T08:40:44.839Z,98237.95
2018-12-05T08:43:14.042Z,98243.46
2018-12-05T08:45:43.288Z,98242.29
2018-12-05T08:48:12.072Z,98245.81
2018-12-05T08:50:41.171Z,98241.52
2018-12-05T08:53:10.288Z,98237.06
2018-12-05T08:55:39.632Z,98245.74
2018-12-05T08:58:08.886Z,98244.84
2018-12-05T09:00:38.017Z,98246.68
2018-12-05T09:03:07.129Z,98247.19
2018-12-05T09:05:36.063Z,98250.70
2018-12-05T09:08:05.390Z,98246.25
2018-12-05T09:10:34.364Z,98248.36
2018-12-05T09:13:03.384Z,98247.52
2018-12-05T09:15:32.575Z,98248.89
2018-12-05T09:18:01.773Z,98249.94
2018-12-05T09:20:30.921Z,98254.33
2018-12-05T09:23:00.064Z,98255.66
2018-12-05T09:25:29.315Z,98261.89
2018-12-05T09:27:58.479Z,98255.42
2018-12-05T09:30:27.330Z,98256.73
2018-12-05T09:32:56.787Z,98264.66
2018-12-05T09:35:26.199Z,98263.42
2018-12-05T09:37:55.057Z,98262.52
2018-12-05T09:40:24.147Z,98266.50
2018-12-05T09:42:53.331Z,98271.77
2018-12-05T09:45:22.575Z,98262.14
2018-12-05T09:47:51.731Z,98268.27
2018-12-05T09:50:20.780Z,98268.80
2018-12-05T09:52:49.603Z,98272.72
2018-12-05T09:55:18.732Z,98269.83
2018-12-05T09:57:47.800Z,98272.47
2018-12-05T10:00:16.996Z,98268.64
2018-12-05T10:02:46.166Z,98268.58
2018-12-05T10:05:15.527Z,98267.67
2018-12-05T10:07:45.468Z,98267.24
2018-12-05T10:10:14.445Z,98268.14
2018-12-05T10:12:43.439Z,98264.77
2018-12-05T10:15:12.600Z,98273.52
2018-12-05T10:17:42.802Z,98264.05
2018-12-05T10:20:12.113Z,98268.92
2018-12-05T10:22:41.153Z,98265.41
2018-12-05T10:25:10.476Z,98266.66
2018-12-05T10:27:39.324Z,98266.16
2018-12-05T10:30:09.677Z,98274.44
2018-12-05T10:32:38.929Z,98274.91
2018-12-05T10:35:08.112Z,98270.09
2018-12-05T10:37:37.054Z,98269.59
2018-12-05T10:40:06.556Z,98268.75
2018-12-05T10:42:35.340Z,98271.45
2018-12-05T10:45:04.440Z,98268.89
2018-12-05T10:47:33.587Z,98273.16
2018-12-05T10:50:02.733Z,98280.59
2018-12-05T10:52:31.943Z,98272.84
2018-12-05T10:55:00.723Z,98267.65
2018-12-05T10:57:29.668Z,98263.67
2018-12-05T10:59:58.898Z,98272.44
2018-12-05T11:02:32.883Z,98274.09
2018-12-05T11:05:07.020Z,98270.09
2018-12-05T11:07:41.209Z,98277.92
2018-12-05T11:11:18.342Z,98264.34
2018-12-05T11:13:52.756Z,98256.97
2018-12-05T11:16:26.991Z,98256.88
2018-12-05T11:19:01.187Z,98258.91
2018-12-05T11:21:35.310Z,98257.57
2018-12-05T11:24:09.509Z,98249.70
2018-12-05T11:26:40.302Z,98242.98
2018-12-05T11:29:09.628Z,98245.09
2018-12-05T11:31:38.797Z,98231.93
2018-12-05T11:34:07.729Z,98234.48
2018-12-05T11:36:36.973Z,98237.86
2018-12-05T11:39:08.293Z,98232.17
2018-12-05T11:41:37.477Z,98241.69
2018-12-05T11:44:06.780Z,98232.60
2018-12-05T11:46:36.077Z,98239.91
2018-12-05T11:49:05.125Z,98242.76
2018-12-05T11:51:34.328Z,98239.17
2018-12-05T11:54:03.289Z,98240.84
2018-12-05T11:56:32.449Z,98228.60
2018-12-05T11:59:01.519Z,98239.06
2018-12-05T12:01:30.690Z,98242.12
2018-12-05T12:03:59.878Z,98233.36
2018-12-05T12:06:29.001Z,98236.38
2018-12-05T12:08:57.740Z,98237.14
2018-12-05T12:11:26.685Z,98237.95
2018-12-05T12:13:55.712Z,98244.89
2018-12-05T12:16:24.853Z,98240.89
2018-12-05T12:18:54.144Z,98239.73
2018-12-05T12:21:23.393Z,98241.36
2018-12-05T12:23:53.295Z,98237.88
2018-12-05T12:26:22.418Z,98247.83
2018-12-05T12:28:51.664Z,98239.52
2018-12-05T12:31:20.784Z,98239.80
2018-12-05T12:33:49.712Z,98240.16
2018-12-05T12:36:18.685Z,98238.86
2018-12-05T12:38:47.880Z,98242.16
2018-12-05T12:41:16.999Z,98246.84
2018-12-05T12:43:45.947Z,98242.16
2018-12-05T12:46:15.104Z,98244.34
2018-12-05T12:48:44.161Z,98246.33
2018-12-05T12:51:13.343Z,98253.97
2018-12-05T12:53:42.464Z,98247.11
2018-12-05T12:56:11.203Z,98254.70
2018-12-05T12:58:40.376Z,98254.27
2018-12-05T13:01:09.568Z,98269.13
2018-12-05T13:03:38.808Z,98268.73
2018-12-05T13:06:08.008Z,98268.53
2018-12-05T13:08:37.076Z,98280.31
2018-12-05T13:11:06.396Z,98280.91
2018-12-05T13:13:35.453Z,98285.67
2018-12-05T13:16:04.827Z,98281.11
2018-12-05T13:18:34.052Z,98283.06
2018-12-05T13:21:03.293Z,98289.39
2018-12-05T13:23:32.034Z,98298.08
2018-12-05T13:26:01.467Z,98297.77
2018-12-05T13:28:30.507Z,98290.52
2018-12-05T13:30:59.644Z,98293.14
2018-12-05T13:33:28.902Z,98297.62
2018-12-05T13:35:57.937Z,98298.52
2018-12-05T13:38:27.175Z,98303.84
2018-12-05T13:40:56.359Z,98303.59
2018-12-05T13:43:25.639Z,98311.86
2018-12-05T13:45:54.970Z,98311.02
2018-12-05T13:48:24.517Z,98308.06
2018-12-05T13:50:53.772Z,98311.60
2018-12-05T13:53:22.711Z,98318.45
2018-12-05T13:55:51.791Z,98315.32
2018-12-05T13:58:20.783Z,98320.23
2018-12-05T14:00:49.607Z,98324.29
2018-12-05T14:03:18.784Z,98331.61
2018-12-05T14:05:47.723Z,98329.44
2018-12-05T14:08:16.716Z,98337.52
2018-12-05T14:10:45.573Z,98341.05
2018-12-05T14:13:14.727Z,98340.62
2018-12-05T14:15:43.867Z,98339.02
2018-12-05T14:18:12.951Z,98341.67
2018-12-05T14:20:42.217Z,98344.47
2018-12-05T14:23:10.967Z,98348.02
2018-12-05T14:25:40.137Z,98348.87
2018-12-05T14:28:09.281Z,98353.22
2018-12-05T14:30:38.244Z,98350.25
2018-12-05T14:33:07.140Z,98355.91
2018-12-05T14:35:36.295Z,98356.75
2018-12-05T14:38:05.124Z,98354.19
2018-12-05T14:40:34.239Z,98358.29
2018-12-05T14:43:03.324Z,98358.22
2018-12-05T14:45:32.423Z,98360.84
2018-12-05T14:48:01.597Z,98369.20
2018-12-05T14:50:30.746Z,98364.95
2018-12-05T14:52:59.995Z,98368.79
2018-12-05T14:55:28.924Z,98369.62
2018-12-05T14:57:58.144Z,98364.69
2018-12-05T15:00:27.300Z,98370.36
2018-12-05T15:02:56.214Z,98361.20
2018-12-05T15:05:25.373Z,98363.97
2018-12-05T15:07:54.521Z,98363.11
2018-12-05T15:10:23.412Z,98364.09
2018-12-05T15:12:52.891Z,98359.31
2018-12-05T15:15:22.125Z,98363.77
2018-12-05T15:17:51.248Z,98359.91
2018-12-05T15:20:20.406Z,98366.05
2018-12-05T15:22:49.461Z,98370.83
2018-12-05T15:25:18.753Z,98371.34
2018-12-05T15:27:47.948Z,98374.86
2018-12-05T15:30:16.970Z,98378.77
2018-12-05T15:32:46.163Z,98387.38
2018-12-05T15:35:15.289Z,98390.41
2018-12-05T15:37:44.646Z,98395.55
2018-12-05T15:40:13.843Z,98405.66
2018-12-05T15:42:43.402Z,98413.13
2018-12-05T15:45:12.857Z,98413.45
2018-12-05T15:47:41.854Z,98421.72
2018-12-05T15:50:11.023Z,98420.03
2018-12-05T15:52:40.171Z,98426.09
2018-12-05T15:55:09.243Z,98423.60
2018-12-05T15:57:38.514Z,98426.25
2018-12-05T16:00:09.062Z,98429.77
2018-12-05T16:02:38.182Z,98432.83
2018-12-05T16:05:07.978Z,98426.78
2018-12-05T16:07:37.091Z,98426.38
2018-12-05T16:10:07.485Z,98413.41
2018-12-05T16:12:36.284Z,98421.34
2018-12-05T16:15:05.760Z,98426.56
2018-12-05T16:17:34.812Z,98434.42
2018-12-05T16:20:03.876Z,98430.98
2018-12-05T16:22:32.672Z,98425.80
2018-12-05T16:25:01.739Z,98425.74
2018-12-05T16:27:31.585Z,98417.48
2018-12-05T16:30:00.540Z,98414.92
2018-12-05T16:32:29.749Z,98417.48
2018-12-05T16:34:58.990Z,98419.24
2018-12-05T16:37:27.843Z,98426.14
2018-12-05T16:39:56.741Z,98433.16
2018-12-05T16:42:25.545Z,98429.63
2018-12-05T16:44:54.489Z,98429.66
2018-12-05T16:47:23.689Z,98438.30
2018-12-05T16:49:52.880Z,98435.22
2018-12-05T16:52:22.079Z,98438.72
2018-12-05T16:54:51.496Z,98435.63
2018-12-05T16:57:20.679Z,98445.59
2018-12-05T16:59:49.800Z,98453.44
2018-12-05T17:02:18.688Z,98455.61
2018-12-05T17:04:47.822Z,98455.61
2018-12-05T17:07:17.149Z,98463.06
2018-12-05T17:09:46.320Z,98463.50
2018-12-05T17:12:15.552Z,98461.75
2018-12-05T17:14:44.556Z,98469.20
2018-12-05T17:17:13.564Z,98464.39
2018-12-05T17:19:42.649Z,98471.77
2018-12-05T17:22:11.947Z,98482.23
2018-12-05T17:24:41.040Z,98477.49
2018-12-05T17:27:09.971Z,98474.89
2018-12-05T17:29:38.979Z,98477.97
2018-12-05T17:32:08.141Z,98477.13
2018-12-05T17:34:37.060Z,98488.39
2018-12-05T17:37:05.816Z,98491.89
2018-12-05T17:39:34.830Z,98497.95
2018-12-05T17:42:04.175Z,98492.72
2018-12-05T17:44:33.267Z,98488.87
2018-12-05T17:47:02.367Z,98494.94
2018-12-05T17:49:31.468Z,98503.23
2018-12-05T17:52:00.687Z,98493.27
2018-12-05T17:54:29.545Z,98500.28
2018-12-05T17:56:58.464Z,98492.87
2018-12-05T17:59:27.363Z,98502.00
2018-12-05T18:01:56.728Z,98497.64
2018-12-05T18:04:25.841Z,98501.52
2018-12-05T18:06:55.035Z,98509.82
2018-12-05T18:09:24.085Z,98510.70
2018-12-05T18:11:53.371Z,98511.59
2018-12-05T18:14:22.618Z,98517.69
2018-12-05T18:16:51.795Z,98519.88
2018-12-05T18:19:20.915Z,98521.60
2018-12-05T18:21:50.013Z,98527.24
2018-12-05T18:24:19.256Z,98531.14
2018-12-05T18:26:48.513Z,98535.90
2018-12-05T18:29:18.107Z,98539.80
2018-12-05T18:31:47.205Z,98538.55
2018-12-05T18:34:16.363Z,98538.93
2018-12-05T18:36:45.925Z,98535.45
2018-12-05T18:39:15.260Z,98548.94
2018-12-05T18:41:44.358Z,98544.58
2018-12-05T18:44:13.469Z,98545.43
2018-12-05T18:46:42.477Z,98546.34
2018-12-05T18:49:11.960Z,98548.96
2018-12-05T18:51:40.879Z,98556.38
2018-12-05T18:54:10.606Z,98552.88
2018-12-05T18:56:39.887Z,98567.60
2018-12-05T18:59:09.096Z,98561.10
2018-12-05T19:01:38.897Z,98572.83
2018-12-05T19:04:07.828Z,98575.48
2018-12-05T19:06:36.938Z,98579.81
2018-12-05T19:09:08.070Z,98570.73
2018-12-05T19:11:37.231Z,98584.61
2018-12-05T19:14:13.094Z,98586.78
2018-12-05T19:16:42.868Z,98589.36
2018-12-05T19:19:12.485Z,98595.46
2018-12-05T19:21:42.430Z,98589.38
2018-12-05T19:24:12.731Z,98597.63
2018-12-05T19:26:43.893Z,98591.13
2018-12-05T19:29:13.294Z,98595.88
2018-12-05T19:31:42.805Z,98597.66
2018-12-05T19:34:13.308Z,98599.88
2018-12-05T19:36:43.362Z,98606.39
2018-12-05T19:39:12.564Z,98607.23
2018-12-05T19:41:41.630Z,98614.15
2018-12-05T19:44:10.897Z,98613.72
2018-12-05T19:46:41.669Z,98617.60
2018-12-05T19:49:10.956Z,98621.96
2018-12-05T19:51:40.026Z,98620.23
2018-12-05T19:54:09.164Z,98621.09
2018-12-05T19:56:38.268Z,98623.69
2018-12-05T19:59:07.401Z,98632.38
2018-12-05T20:01:36.550Z,98629.77
2018-12-05T20:04:05.875Z,98639.33
2018-12-05T20:06:36.568Z,98636.30
2018-12-05T20:09:08.641Z,98638.90
2018-12-05T20:11:37.925Z,98640.63
2018-12-05T20:14:10.047Z,98632.38
2018-12-05T20:16:39.171Z,98637.16
2018-12-05T20:19:08.878Z,98643.25
2018-12-05T20:21:38.139Z,98639.36
2018-12-05T20:24:07.178Z,98639.37
2018-12-05T20:26:36.995Z,98647.17
2018-12-05T20:29:05.934Z,98646.73
2018-12-05T20:31:35.278Z,98647.16
2018-12-05T20:34:04.367Z,98656.28
2018-12-05T20:36:33.765Z,98656.71
2018-12-05T20:39:03.218Z,98657.58
2018-12-05T20:41:33.447Z,98653.28
2018-12-05T20:44:02.754Z,98653.27
2018-12-05T20:46:32.576Z,98662.36
2018-12-05T20:49:01.657Z,98661.48
2018-12-05T20:51:30.743Z,98669.77
2018-12-05T20:53:59.949Z,98676.28
2018-12-05T20:56:29.288Z,98672.81
2018-12-05T20:58:58.480Z,98680.60
2018-12-05T21:01:27.756Z,98685.39
2018-12-05T21:03:56.958Z,98687.12
2018-12-05T21:06:26.098Z,98681.92
2018-12-05T21:08:55.000Z,98686.67
2018-12-05T21:11:24.185Z,98686.26
2018-12-05T21:13:53.221Z,98686.69
2018-12-05T21:16:22.457Z,98689.30
2018-12-05T21:18:51.543Z,98686.67
2018-12-05T21:21:20.760Z,98691.88
2018-12-05T21:23:49.831Z,98697.08
2018-12-05T21:26:18.953Z,98699.27
2018-12-05T21:28:48.139Z,98703.59
2018-12-05T21:31:17.287Z,98704.91
2018-12-05T21:33:46.628Z,98703.18
2018-12-05T21:36:15.788Z,98705.33
2018-12-05T21:38:45.251Z,98702.74
2018-12-05T21:41:14.344Z,98701.00
2018-12-05T21:43:43.389Z,98699.28
2018-12-05T21:46:12.542Z,98697.52
2018-12-05T21:48:41.524Z,98704.45
2018-12-05T21:51:10.664Z,98702.28
2018-12-05T21:53:39.831Z,98700.13
2018-12-05T21:56:08.983Z,98705.33
2018-12-05T21:58:37.968Z,98699.70
2018-12-05T22:01:06.912Z,98697.09
2018-12-05T22:03:35.933Z,98701.87
2018-12-05T22:06:05.131Z,98700.56
2018-12-05T22:08:33.991Z,98700.13
2018-12-05T22:11:02.832Z,98693.62
2018-12-05T22:13:32.046Z,98697.11
2018-12-05T22:16:01.130Z,98693.64
2018-12-05T22:18:30.291Z,98690.60
2018-12-05T22:20:59.437Z,98694.50
2018-12-05T22:23:28.580Z,98693.64
2018-12-05T22:25:57.836Z,98690.15
2018-12-05T22:28:26.976Z,98695.36
2018-12-05T22:30:55.980Z,98699.70
2018-12-05T22:33:24.775Z,98694.93
2018-12-05T22:35:53.672Z,98700.13
2018-12-05T22:38:22.856Z,98692.76
2018-12-05T22:40:51.715Z,98696.67
2018-12-05T22:43:20.779Z,98694.48
2018-12-05T22:45:49.959Z,98691.88
2018-12-05T22:48:19.161Z,98688.88
2018-12-05T22:50:48.172Z,98693.64
2018-12-05T22:53:17.359Z,98689.72
2018-12-05T22:55:46.517Z,98684.09
2018-12-05T22:58:15.652Z,98688.86
2018-12-05T23:00:48.784Z,98689.70
2018-12-05T23:03:17.962Z,98691.45
2018-12-05T23:05:47.043Z,98688.00
2018-12-05T23:08:16.151Z,98687.98
2018-12-05T23:10:45.006Z,98686.27
2018-12-05T23:13:14.003Z,98683.22
2018-12-05T23:15:43.205Z,98695.36
2018-12-05T23:18:12.422Z,98688.00
2018-12-05T23:20:41.496Z,98686.68
2018-12-05T23:23:10.708Z,98686.23
2018-12-05T23:25:39.610Z,98693.62
2018-12-05T23:28:08.706Z,98691.03
2018-12-05T23:30:37.561Z,98693.18
2018-12-05T23:33:06.683Z,98697.93
2018-12-05T23:35:35.640Z,98691.03
2018-12-05T23:38:04.707Z,98695.33
2018-12-05T23:40:33.796Z,98697.03
2018-12-05T23:43:03.039Z,98701.36
2018-12-05T23:45:32.385Z,98688.80
2018-12-05T23:48:01.636Z,98690.16
2018-12-05T23:50:30.831Z,98685.83
2018-12-05T23:52:59.840Z,98691.03
2018-12-05T23:55:28.716Z,98694.48
2018-12-05T23:57:57.764Z,98692.27
